Time;durP1;ratioP1;P1;durP2;ratioP2;P2;SDS_P1;SDS_P2;PMS_P1;PMS_P2;Temp;Humidity;BMP_temperature;BMP_pressure;BME280_temperature;BME280_humidity;BME280_pressure;Samples;Min_cycle;Max_cycle;Signal;HPM_P1;HPM_P2
2024/03/31 00:00:04;;;;;;;4.35;3.25;;;;;;;-145.63;100.00;61273.97;5112983;28;20218;-69
2024/03/31 00:02:31;;;;;;;3.72;2.90;;;;;;;-145.63;100.00;61273.97;5126439;27;20031;-68
2024/03/31 00:04:56;;;;;;;6.35;3.22;;;;;;;-145.63;100.00;61273.97;5094513;28;20031;-70
2024/03/31 00:07:22;;;;;;;5.20;3.30;;;;;;;-145.63;100.00;61273.97;5118933;27;20487;-69
2024/03/31 00:09:48;;;;;;;4.32;3.08;;;;;;;-145.63;100.00;61273.97;5112191;28;20115;-69
2024/03/31 00:12:17;;;;;;;6.25;3.28;;;;;;;-145.63;100.00;61273.97;5112933;28;20020;-69
2024/03/31 00:14:44;;;;;;;5.65;3.33;;;;;;;-145.63;100.00;61273.97;5111860;28;20080;-68
2024/03/31 00:17:09;;;;;;;5.15;3.30;;;;;;;-145.63;100.00;61273.97;5114123;28;20032;-69
2024/03/31 00:19:35;;;;;;;3.58;3.05;;;;;;;-145.63;100.00;61273.97;5121964;27;20478;-69
2024/03/31 00:22:01;;;;;;;6.90;3.20;;;;;;;-145.63;100.00;61273.97;5124498;27;20230;-68
2024/03/31 00:24:27;;;;;;;6.47;3.58;;;;;;;-145.63;100.00;61273.97;5111572;28;20056;-68
2024/03/31 00:26:53;;;;;;;6.85;3.70;;;;;;;-145.63;100.00;61273.97;5117685;28;20043;-67
2024/03/31 00:29:19;;;;;;;5.18;3.30;;;;;;;-145.63;100.00;61273.97;5111924;28;20034;-67
2024/03/31 00:31:46;;;;;;;7.07;3.83;;;;;;;-145.63;100.00;61273.97;5113995;27;20046;-68
2024/03/31 00:34:12;;;;;;;6.53;3.92;;;;;;;-145.63;100.00;61273.97;5112386;28;20440;-66
2024/03/31 00:36:38;;;;;;;9.13;4.10;;;;;;;-145.63;100.00;61273.97;5118076;28;20044;-68
2024/03/31 00:39:04;;;;;;;5.38;3.95;;;;;;;-145.63;100.00;61273.97;5111633;28;20054;-67
2024/03/31 00:41:30;;;;;;;6.82;4.60;;;;;;;-145.63;100.00;61273.97;5119744;28;21401;-68
2024/03/31 00:43:56;;;;;;;7.78;4.80;;;;;;;-145.63;100.00;61273.97;5111811;28;20032;-69
2024/03/31 00:46:21;;;;;;;7.15;5.00;;;;;;;-145.63;100.00;61273.97;5110837;28;20059;-69
2024/03/31 00:48:47;;;;;;;7.20;5.35;;;;;;;-145.63;100.00;61273.97;5128376;28;20043;-68
2024/03/31 00:51:13;;;;;;;9.07;5.13;;;;;;;-145.63;100.00;61273.97;5119987;28;20115;-69
2024/03/31 00:53:38;;;;;;;7.82;5.40;;;;;;;-145.63;100.00;61273.97;5130926;28;20088;-68
2024/03/31 00:56:04;;;;;;;9.60;5.65;;;;;;;-145.63;100.00;61273.97;5118399;28;20031;-68
2024/03/31 00:58:30;;;;;;;7.57;5.10;;;;;;;-145.63;100.00;61273.97;5111222;28;20494;-68
2024/03/31 01:00:55;;;;;;;9.18;5.60;;;;;;;-145.63;100.00;61273.97;5111447;28;20043;-69
2024/03/31 01:03:28;;;;;;;6.82;5.03;;;;;;;-145.63;100.00;61273.97;5113596;28;20027;-68
2024/03/31 01:05:57;;;;;;;8.05;5.63;;;;;;;-145.63;100.00;61273.97;5115599;28;20030;-69
2024/03/31 01:08:23;;;;;;;6.80;5.50;;;;;;;-145.63;100.00;61273.97;5115410;28;20049;-67
2024/03/31 01:10:49;;;;;;;7.13;5.70;;;;;;;-145.63;100.00;61273.97;5115502;28;20032;-67
2024/03/31 01:13:15;;;;;;;10.50;6.65;;;;;;;-145.63;100.00;61273.97;5115815;27;20138;-69
2024/03/31 01:15:41;;;;;;;9.40;6.30;;;;;;;-145.63;100.00;61273.97;5117729;27;20039;-68
2024/03/31 01:18:07;;;;;;;7.97;6.22;;;;;;;-145.63;100.00;61273.97;5098102;28;20380;-68
2024/03/31 01:20:32;;;;;;;8.93;6.32;;;;;;;-145.63;100.00;61273.97;5098967;27;20031;-68
2024/03/31 01:23:02;;;;;;;9.70;6.88;;;;;;;-145.63;100.00;61273.97;5127625;27;20023;-67
2024/03/31 01:25:28;;;;;;;8.45;6.40;;;;;;;-145.63;100.00;61273.97;5127372;27;20036;-67
2024/03/31 01:27:54;;;;;;;8.85;6.28;;;;;;;-145.63;100.00;61273.97;5123198;27;20122;-67
2024/03/31 01:30:19;;;;;;;10.70;7.00;;;;;;;-145.63;100.00;61273.97;5117298;27;20039;-70
2024/03/31 01:32:45;;;;;;;9.82;6.78;;;;;;;-145.63;100.00;61273.97;5117120;27;20032;-68
2024/03/31 01:35:11;;;;;;;9.90;6.90;;;;;;;-145.63;100.00;61273.97;5121131;27;20032;-69
2024/03/31 01:37:37;;;;;;;9.18;6.88;;;;;;;-145.63;100.00;61273.97;5118266;27;20039;-67
2024/03/31 01:40:03;;;;;;;11.52;7.25;;;;;;;-145.63;100.00;61273.97;5115226;27;20038;-68
2024/03/31 01:42:29;;;;;;;10.60;7.10;;;;;;;-145.63;100.00;61273.97;5133189;27;20098;-68
2024/03/31 01:44:54;;;;;;;11.88;6.57;;;;;;;-145.63;100.00;61273.97;5115792;27;20123;-68
2024/03/31 01:47:20;;;;;;;13.80;7.43;;;;;;;-145.63;100.00;61273.97;5115086;27;20035;-67
2024/03/31 01:49:46;;;;;;;9.20;6.70;;;;;;;-145.63;100.00;61273.97;5114725;27;20114;-68
2024/03/31 01:52:11;;;;;;;12.40;6.93;;;;;;;-145.63;100.00;61273.97;5114518;28;20034;-68
2024/03/31 01:54:37;;;;;;;11.32;6.70;;;;;;;-145.63;100.00;61273.97;5125252;27;20031;-68
2024/03/31 01:57:06;;;;;;;7.60;5.45;;;;;;;-145.63;100.00;61273.97;5130032;27;20428;-67
2024/03/31 01:59:31;;;;;;;9.27;5.72;;;;;;;-145.63;100.00;61273.97;5129317;27;20058;-69
2024/03/31 02:01:57;;;;;;;9.25;6.25;;;;;;;-145.63;100.00;61273.97;5132493;27;20728;-68
2024/03/31 02:04:23;;;;;;;8.45;5.90;;;;;;;-145.63;100.00;61273.97;5132365;27;20023;-67
2024/03/31 02:06:49;;;;;;;8.43;5.93;;;;;;;-145.63;100.00;61273.97;5132918;27;20122;-68
2024/03/31 02:09:14;;;;;;;8.02;5.22;;;;;;;-145.63;100.00;61273.97;5114612;27;20028;-67
2024/03/31 02:11:40;;;;;;;6.90;5.13;;;;;;;-145.63;100.00;61273.97;5126775;27;20055;-67
2024/03/31 02:14:05;;;;;;;8.23;5.18;;;;;;;-145.63;100.00;61273.97;5124688;27;20036;-67
2024/03/31 02:16:31;;;;;;;8.73;5.38;;;;;;;-145.63;100.00;61273.97;5117877;27;20065;-69
2024/03/31 02:18:57;;;;;;;7.55;5.10;;;;;;;-145.63;100.00;61273.97;5114850;27;20088;-68
2024/03/31 02:21:23;;;;;;;6.63;4.63;;;;;;;-145.63;100.00;61273.97;5123634;27;20030;-70
2024/03/31 02:23:48;;;;;;;8.27;4.90;;;;;;;-145.63;100.00;61273.97;5115918;27;20554;-68
2024/03/31 02:26:14;;;;;;;7.57;4.80;;;;;;;-145.63;100.00;61273.97;5122133;27;20117;-68
2024/03/31 02:28:39;;;;;;;7.20;4.70;;;;;;;-145.63;100.00;61273.97;5106706;28;20147;-67
2024/03/31 02:31:05;;;;;;;7.57;4.72;;;;;;;-145.63;100.00;61273.97;5125217;27;20047;-67
2024/03/31 02:33:30;;;;;;;6.15;5.10;;;;;;;-145.63;100.00;61273.97;5114425;28;20031;-68
2024/03/31 02:35:56;;;;;;;6.93;4.25;;;;;;;-145.63;100.00;61273.97;5127554;27;20023;-66
2024/03/31 02:38:22;;;;;;;5.55;4.82;;;;;;;-145.63;100.00;61273.97;5119063;27;20033;-67
2024/03/31 02:40:47;;;;;;;7.07;5.05;;;;;;;-145.63;100.00;61273.97;5115340;27;20345;-68
2024/03/31 02:43:13;;;;;;;9.27;4.55;;;;;;;-145.63;100.00;61273.97;5118879;27;20046;-67
2024/03/31 02:45:39;;;;;;;8.65;4.72;;;;;;;-145.63;100.00;61273.97;5130942;27;20027;-67
2024/03/31 02:48:05;;;;;;;7.00;5.38;;;;;;;-145.63;100.00;61273.97;5114222;28;20080;-69
2024/03/31 02:50:31;;;;;;;6.75;4.40;;;;;;;-145.63;100.00;61273.97;5113140;28;20055;-68
2024/03/31 02:52:57;;;;;;;6.00;4.65;;;;;;;-145.63;100.00;61273.97;5113562;28;20401;-67
2024/03/31 02:55:22;;;;;;;7.53;4.63;;;;;;;-145.63;100.00;61273.97;5125773;27;20023;-67
2024/03/31 02:57:48;;;;;;;6.95;5.15;;;;;;;-145.63;100.00;61273.97;5132420;27;20521;-67
2024/03/31 03:00:17;;;;;;;5.70;4.70;;;;;;;-145.63;100.00;61273.97;5113767;27;20429;-67
2024/03/31 03:02:43;;;;;;;6.32;4.40;;;;;;;-145.63;100.00;61273.97;5129246;27;20023;-67
2024/03/31 03:05:09;;;;;;;6.10;4.57;;;;;;;-145.63;100.00;61273.97;5120950;27;20048;-67
2024/03/31 03:07:35;;;;;;;7.05;4.70;;;;;;;-145.63;100.00;61273.97;5124870;27;20043;-69
2024/03/31 03:10:01;;;;;;;5.35;4.05;;;;;;;-145.63;100.00;61273.97;5113323;28;20107;-69
2024/03/31 03:12:29;;;;;;;7.68;4.95;;;;;;;-145.63;100.00;61273.97;5131610;27;20475;-66
2024/03/31 03:14:55;;;;;;;6.68;4.85;;;;;;;-145.63;100.00;61273.97;5113993;27;20117;-68
2024/03/31 03:17:21;;;;;;;7.03;4.40;;;;;;;-145.63;100.00;61273.97;5113873;27;20080;-67
2024/03/31 03:19:46;;;;;;;5.65;4.40;;;;;;;-145.63;100.00;61273.97;5122594;27;20031;-69
2024/03/31 03:22:12;;;;;;;6.05;4.25;;;;;;;-145.63;100.00;61273.97;5128036;27;20065;-68
2024/03/31 03:24:38;;;;;;;6.28;4.38;;;;;;;-145.63;100.00;61273.97;5113017;28;20051;-68
2024/03/31 03:27:04;;;;;;;8.05;4.57;;;;;;;-145.63;100.00;61273.97;5110904;27;20122;-67
2024/03/31 03:29:30;;;;;;;6.00;4.43;;;;;;;-145.63;100.00;61273.97;5112631;28;20032;-66
2024/03/31 03:31:55;;;;;;;7.47;5.28;;;;;;;-145.63;100.00;61273.97;5121311;27;20047;-68
2024/03/31 03:34:21;;;;;;;7.82;5.03;;;;;;;-145.63;100.00;61273.97;5126793;27;20051;-68
2024/03/31 03:36:47;;;;;;;5.90;5.30;;;;;;;-145.63;100.00;61273.97;5121779;27;20027;-67
2024/03/31 03:39:17;;;;;;;10.43;7.55;;;;;;;-145.63;100.00;61273.97;5094614;28;20072;-69
2024/03/31 03:41:43;;;;;;;7.53;5.80;;;;;;;-145.63;100.00;61273.97;5117846;27;20068;-67
2024/03/31 03:44:09;;;;;;;9.98;6.03;;;;;;;-145.63;100.00;61273.97;5120924;27;20024;-69
2024/03/31 03:46:35;;;;;;;7.43;5.38;;;;;;;-145.63;100.00;61273.97;5112558;27;20456;-68
2024/03/31 03:49:00;;;;;;;7.68;5.45;;;;;;;-145.63;100.00;61273.97;5112554;28;20057;-68
2024/03/31 03:51:26;;;;;;;8.18;5.78;;;;;;;-145.63;100.00;61273.97;5123937;27;20447;-67
2024/03/31 03:53:52;;;;;;;8.00;5.40;;;;;;;-145.63;100.00;61273.97;5114931;27;20032;-68
2024/03/31 03:56:18;;;;;;;8.68;5.15;;;;;;;-145.63;100.00;61273.97;5125591;27;20027;-68
2024/03/31 03:58:45;;;;;;;10.40;5.18;;;;;;;-145.63;100.00;61273.97;5123488;27;20036;-67
2024/03/31 04:01:13;;;;;;;8.00;6.03;;;;;;;-145.63;100.00;61273.97;5115374;27;20027;-68
2024/03/31 04:03:39;;;;;;;7.47;5.47;;;;;;;-145.63;100.00;61273.97;5114504;27;20036;-68
2024/03/31 04:06:05;;;;;;;9.52;6.18;;;;;;;-145.63;100.00;61273.97;5119865;27;20053;-68
2024/03/31 04:08:30;;;;;;;6.55;5.65;;;;;;;-145.63;100.00;61273.97;5130401;27;20122;-68
2024/03/31 04:10:56;;;;;;;8.00;6.07;;;;;;;-145.63;100.00;61273.97;5121768;27;20036;-66
2024/03/31 04:13:22;;;;;;;9.70;6.47;;;;;;;-145.63;100.00;61273.97;5112979;28;20034;-68
2024/03/31 04:16:00;;;;;;;8.48;6.80;;;;;;;-145.63;100.00;61273.97;5115547;27;20065;-67
2024/03/31 04:18:26;;;;;;;9.63;7.30;;;;;;;-145.63;100.00;61273.97;5112306;27;20102;-69
2024/03/31 04:20:52;;;;;;;10.70;7.78;;;;;;;-145.63;100.00;61273.97;5117325;27;20054;-68
2024/03/31 04:23:17;;;;;;;9.88;8.10;;;;;;;-145.63;100.00;61273.97;5128317;27;20043;-68
2024/03/31 04:25:43;;;;;;;9.32;7.50;;;;;;;-145.63;100.00;61273.97;5123790;27;20424;-68
2024/03/31 04:28:09;;;;;;;9.32;8.10;;;;;;;-145.63;100.00;61273.97;5114546;27;20043;-68
2024/03/31 04:30:44;;;;;;;11.00;7.40;;;;;;;-145.63;100.00;61273.97;5114402;28;20039;-68
2024/03/31 04:33:10;;;;;;;10.80;8.10;;;;;;;-145.63;100.00;61273.97;5112227;28;20027;-67
2024/03/31 04:35:37;;;;;;;8.73;7.57;;;;;;;-145.63;100.00;61273.97;5114981;28;20099;-68
2024/03/31 04:38:05;;;;;;;11.18;8.68;;;;;;;-145.63;100.00;61273.97;5122834;27;20027;-67
2024/03/31 04:40:31;;;;;;;9.30;7.80;;;;;;;-145.63;100.00;61273.97;5118241;28;20138;-68
2024/03/31 04:42:57;;;;;;;10.82;7.70;;;;;;;-145.63;100.00;61273.97;5119060;27;20039;-67
2024/03/31 04:45:23;;;;;;;10.77;7.07;;;;;;;-145.63;100.00;61273.97;5119321;27;20027;-67
2024/03/31 04:47:49;;;;;;;13.05;7.40;;;;;;;-145.63;100.00;61273.97;5120930;27;20050;-68
2024/03/31 04:50:15;;;;;;;8.52;7.38;;;;;;;-145.63;100.00;61273.97;5119549;27;20468;-67
2024/03/31 04:52:42;;;;;;;8.05;7.05;;;;;;;-145.63;100.00;61273.97;5125876;27;20031;-67
2024/03/31 04:55:07;;;;;;;8.85;7.93;;;;;;;-145.63;100.00;61273.97;5135358;27;20862;-65
2024/03/31 04:57:33;;;;;;;10.45;7.85;;;;;;;-145.63;100.00;61273.97;5138116;27;20244;-67
2024/03/31 04:59:59;;;;;;;9.63;7.47;;;;;;;-145.63;100.00;61273.97;5120100;27;20483;-68
2024/03/31 05:02:24;;;;;;;9.93;7.45;;;;;;;-145.63;100.00;61273.97;5131664;27;20037;-67
2024/03/31 05:04:50;;;;;;;11.13;7.00;;;;;;;-145.63;100.00;61273.97;5128871;27;20031;-67
2024/03/31 05:07:18;;;;;;;10.88;7.75;;;;;;;-145.63;100.00;61273.97;5122482;27;20031;-68
2024/03/31 05:09:44;;;;;;;10.55;7.70;;;;;;;-145.63;100.00;61273.97;5136750;27;20091;-67
2024/03/31 05:12:09;;;;;;;9.10;7.18;;;;;;;-145.63;100.00;61273.97;5118462;27;20031;-68
2024/03/31 05:14:35;;;;;;;10.50;7.43;;;;;;;-145.63;100.00;61273.97;5126020;27;20110;-67
2024/03/31 05:17:03;;;;;;;9.77;7.70;;;;;;;-145.63;100.00;61273.97;5123891;27;20493;-69
2024/03/31 05:19:29;;;;;;;9.10;7.80;;;;;;;-145.63;100.00;61273.97;5118888;27;20112;-67
2024/03/31 05:21:54;;;;;;;7.30;6.60;;;;;;;-145.63;100.00;61273.97;5117992;28;20457;-68
2024/03/31 05:24:20;;;;;;;8.10;7.25;;;;;;;-145.63;100.00;61273.97;5123569;27;20142;-67
2024/03/31 05:26:46;;;;;;;10.13;7.55;;;;;;;-145.63;100.00;61273.97;5121243;27;20458;-68
2024/03/31 05:29:12;;;;;;;8.95;7.57;;;;;;;-145.63;100.00;61273.97;5108533;27;20037;-67
2024/03/31 05:31:37;;;;;;;9.00;7.75;;;;;;;-145.63;100.00;61273.97;5131677;27;20119;-69
2024/03/31 05:34:05;;;;;;;10.63;8.20;;;;;;;-145.63;100.00;61273.97;5118032;27;20027;-68
2024/03/31 05:36:31;;;;;;;10.65;8.15;;;;;;;-145.63;100.00;61273.97;5129311;27;20024;-69
2024/03/31 05:38:56;;;;;;;10.52;8.77;;;;;;;-145.63;100.00;61273.97;5118874;28;20023;-68
2024/03/31 05:41:22;;;;;;;9.88;8.10;;;;;;;-145.63;100.00;61273.97;5132058;27;20436;-68
2024/03/31 05:43:48;;;;;;;10.98;8.05;;;;;;;-145.63;100.00;61273.97;5129911;27;20111;-69
2024/03/31 05:46:13;;;;;;;9.60;7.75;;;;;;;-145.63;100.00;61273.97;5118433;27;20036;-70
2024/03/31 05:48:39;;;;;;;10.18;7.70;;;;;;;-145.63;100.00;61273.97;5117708;28;20038;-70
2024/03/31 05:51:04;;;;;;;9.93;7.60;;;;;;;-145.63;100.00;61273.97;5126471;27;20023;-70
2024/03/31 05:53:30;;;;;;;8.57;7.63;;;;;;;-145.63;100.00;61273.97;5121026;27;20364;-69
2024/03/31 05:55:56;;;;;;;8.32;7.30;;;;;;;-145.63;100.00;61273.97;5114475;28;20082;-69
2024/03/31 05:58:21;;;;;;;10.15;7.40;;;;;;;-145.63;100.00;61273.97;5114399;28;20028;-69
2024/03/31 06:00:48;;;;;;;9.13;7.07;;;;;;;-145.63;100.00;61273.97;5116690;27;20115;-68
2024/03/31 06:03:14;;;;;;;11.35;7.53;;;;;;;-145.63;100.00;61273.97;5134989;27;20035;-68
2024/03/31 06:05:39;;;;;;;10.10;7.78;;;;;;;-145.63;100.00;61273.97;5119705;27;20031;-68
2024/03/31 06:08:06;;;;;;;10.18;7.70;;;;;;;-145.63;100.00;61273.97;5114702;28;20035;-68
2024/03/31 06:10:32;;;;;;;9.05;7.95;;;;;;;-145.63;100.00;61273.97;5115868;27;20054;-67
2024/03/31 06:12:58;;;;;;;10.38;7.88;;;;;;;-145.63;100.00;61273.97;5134180;27;20421;-68
2024/03/31 06:15:23;;;;;;;9.55;7.68;;;;;;;-145.63;100.00;61273.97;5114627;27;20024;-68
2024/03/31 06:17:49;;;;;;;12.10;9.38;;;;;;;-145.63;100.00;61273.97;5131141;27;20120;-69
2024/03/31 06:20:14;;;;;;;23.83;17.55;;;;;;;-145.63;100.00;61273.97;5123324;27;20039;-68
2024/03/31 06:22:41;;;;;;;17.40;11.48;;;;;;;-145.63;100.00;61273.97;5126796;27;20040;-70
2024/03/31 06:25:08;;;;;;;16.85;12.02;;;;;;;-145.63;100.00;61273.97;5096063;28;20480;-71
2024/03/31 06:27:36;;;;;;;15.80;9.25;;;;;;;-145.63;100.00;61273.97;5114136;28;20068;-71
2024/03/31 06:30:03;;;;;;;12.07;8.38;;;;;;;-145.63;100.00;61273.97;5113844;28;20036;-69
2024/03/31 06:32:31;;;;;;;12.60;8.80;;;;;;;-145.63;100.00;61273.97;5101973;27;20436;-68
2024/03/31 06:34:57;;;;;;;11.20;8.10;;;;;;;-145.63;100.00;61273.97;5125208;27;20063;-68
2024/03/31 06:37:22;;;;;;;13.50;8.88;;;;;;;-145.63;100.00;61273.97;5126514;27;20391;-73
2024/03/31 06:39:48;;;;;;;13.20;10.55;;;;;;;-145.63;100.00;61273.97;5113925;28;20055;-70
2024/03/31 06:42:16;;;;;;;13.85;8.82;;;;;;;-145.63;100.00;61273.97;5129735;27;20107;-72
2024/03/31 06:44:42;;;;;;;14.63;8.68;;;;;;;-145.63;100.00;61273.97;5118350;27;20547;-73
2024/03/31 06:47:09;;;;;;;13.48;8.23;;;;;;;-145.63;100.00;61273.97;5113305;27;20027;-70
2024/03/31 06:49:35;;;;;;;9.35;7.97;;;;;;;-145.63;100.00;61273.97;5133468;27;20099;-69
2024/03/31 06:52:02;;;;;;;11.70;8.15;;;;;;;-145.63;100.00;61273.97;5127011;27;20027;-71
2024/03/31 06:54:27;;;;;;;10.60;8.20;;;;;;;-145.63;100.00;61273.97;5132884;27;20429;-70
2024/03/31 06:56:53;;;;;;;10.95;7.85;;;;;;;-145.63;100.00;61273.97;5121136;27;20113;-69
2024/03/31 06:59:19;;;;;;;10.85;7.78;;;;;;;-145.63;100.00;61273.97;5103439;28;20497;-68
2024/03/31 07:01:44;;;;;;;8.23;7.32;;;;;;;-145.63;100.00;61273.97;5120412;27;20031;-69
2024/03/31 07:04:10;;;;;;;11.00;8.63;;;;;;;-145.63;100.00;61273.97;5124111;27;20027;-69
2024/03/31 07:06:36;;;;;;;10.75;7.88;;;;;;;-145.63;100.00;61273.97;5132995;27;20059;-74
2024/03/31 07:09:01;;;;;;;16.15;8.88;;;;;;;-145.63;100.00;61273.97;5115753;27;20035;-71
2024/03/31 07:11:27;;;;;;;12.15;8.32;;;;;;;-145.63;100.00;61273.97;5123469;27;20391;-76
2024/03/31 07:13:53;;;;;;;10.38;7.75;;;;;;;-145.63;100.00;61273.97;5124172;27;20108;-73
2024/03/31 07:16:19;;;;;;;8.55;7.05;;;;;;;-145.63;100.00;61273.97;5118701;27;20217;-72
2024/03/31 07:18:44;;;;;;;7.75;6.47;;;;;;;-145.63;100.00;61273.97;5124780;27;20023;-69
2024/03/31 07:21:10;;;;;;;11.52;6.72;;;;;;;-145.63;100.00;61273.97;5121488;27;20042;-74
2024/03/31 07:23:36;;;;;;;8.43;6.93;;;;;;;-145.63;100.00;61273.97;5126891;27;20488;-70
2024/03/31 07:26:01;;;;;;;9.00;6.07;;;;;;;-145.63;100.00;61273.97;5124455;27;20492;-72
2024/03/31 07:28:27;;;;;;;7.68;6.88;;;;;;;-145.63;100.00;61273.97;5112703;27;20046;-71
2024/03/31 07:30:54;;;;;;;7.43;6.28;;;;;;;-145.63;100.00;61273.97;5126420;27;20035;-73
2024/03/31 07:33:19;;;;;;;8.68;6.00;;;;;;;-145.63;100.00;61273.97;5123356;27;20115;-73
2024/03/31 07:35:45;;;;;;;7.43;5.43;;;;;;;-145.63;100.00;61273.97;5125578;27;20027;-74
2024/03/31 07:38:11;;;;;;;7.28;5.38;;;;;;;-145.63;100.00;61273.97;5116132;27;20059;-71
2024/03/31 07:40:37;;;;;;;5.65;4.70;;;;;;;-145.63;100.00;61273.97;5112285;28;20055;-71
2024/03/31 07:43:03;;;;;;;10.40;6.68;;;;;;;-145.63;100.00;61273.97;5117076;27;20092;-71
2024/03/31 07:45:29;;;;;;;7.55;6.78;;;;;;;-145.63;100.00;61273.97;5114710;27;20049;-72
2024/03/31 07:47:55;;;;;;;7.18;5.60;;;;;;;-145.63;100.00;61273.97;5127523;27;20039;-70
2024/03/31 07:50:21;;;;;;;9.75;7.47;;;;;;;-145.63;100.00;61273.97;5129148;27;20134;-72
2024/03/31 07:52:47;;;;;;;9.43;5.15;;;;;;;-145.63;100.00;61273.97;5116607;27;20742;-72
2024/03/31 07:55:16;;;;;;;5.90;5.28;;;;;;;-145.63;100.00;61273.97;5128934;27;20023;-72
2024/03/31 07:57:41;;;;;;;7.80;5.63;;;;;;;-145.63;100.00;61273.97;5102282;27;20015;-72
2024/03/31 08:00:07;;;;;;;7.45;6.05;;;;;;;-145.63;100.00;61273.97;5113858;27;20747;-71
2024/03/31 08:02:33;;;;;;;7.28;5.90;;;;;;;-145.63;100.00;61273.97;5104826;27;20118;-70
2024/03/31 08:04:58;;;;;;;7.78;6.30;;;;;;;-145.63;100.00;61273.97;5123566;27;20092;-71
2024/03/31 08:07:24;;;;;;;6.20;5.65;;;;;;;-145.63;100.00;61273.97;5126191;27;20110;-67
2024/03/31 08:09:50;;;;;;;9.55;6.20;;;;;;;-145.63;100.00;61273.97;5122217;27;20035;-69
2024/03/31 08:12:15;;;;;;;9.02;6.97;;;;;;;-145.63;100.00;61273.97;5113389;27;20036;-69
2024/03/31 08:14:41;;;;;;;8.68;6.57;;;;;;;-145.63;100.00;61273.97;5119090;27;20134;-68
2024/03/31 08:17:07;;;;;;;11.32;6.97;;;;;;;-145.63;100.00;61273.97;5120689;27;20023;-69
2024/03/31 08:19:32;;;;;;;10.80;6.53;;;;;;;-145.63;100.00;61273.97;5126944;27;20039;-68
2024/03/31 08:21:58;;;;;;;13.52;7.07;;;;;;;-145.63;100.00;61273.97;5126376;27;20031;-69
2024/03/31 08:24:23;;;;;;;9.60;6.60;;;;;;;-145.63;100.00;61273.97;5111428;28;20408;-69
2024/03/31 08:26:49;;;;;;;10.32;7.38;;;;;;;-145.63;100.00;61273.97;5123521;27;20043;-68
2024/03/31 08:29:19;;;;;;;9.02;6.50;;;;;;;-145.63;100.00;61273.97;5129043;27;20391;-68
2024/03/31 08:31:46;;;;;;;11.15;6.82;;;;;;;-145.63;100.00;61273.97;5125625;27;20034;-68
2024/03/31 08:34:12;;;;;;;10.90;7.03;;;;;;;-145.63;100.00;61273.97;5120232;28;20114;-68
2024/03/31 08:36:37;;;;;;;10.20;6.78;;;;;;;-145.63;100.00;61273.97;5131891;28;20543;-68
2024/03/31 08:39:03;;;;;;;13.18;7.30;;;;;;;-145.63;100.00;61273.97;5114430;28;20068;-70
2024/03/31 08:41:49;;;;;;;12.57;7.97;;;;;;;-145.63;100.00;61273.97;5110162;27;20028;-73
2024/03/31 08:44:16;;;;;;;9.57;7.55;;;;;;;-145.63;100.00;61273.97;5112324;28;20441;-73
2024/03/31 08:46:42;;;;;;;11.70;8.15;;;;;;;-145.63;100.00;61273.97;5125972;28;20036;-71
2024/03/31 08:49:10;;;;;;;11.75;8.50;;;;;;;-145.63;100.00;61273.97;5111585;28;20153;-74
2024/03/31 08:51:38;;;;;;;10.48;8.18;;;;;;;-145.63;100.00;61273.97;5110115;28;20034;-72
2024/03/31 08:54:04;;;;;;;21.90;8.55;;;;;;;-145.63;100.00;61273.97;5130081;28;20034;-71
2024/03/31 08:56:29;;;;;;;14.48;7.93;;;;;;;-145.63;100.00;61273.97;5115216;28;20372;-72
2024/03/31 08:58:56;;;;;;;15.90;8.25;;;;;;;-145.63;100.00;61273.97;5101281;28;20035;-72
2024/03/31 09:01:24;;;;;;;9.90;7.55;;;;;;;-145.63;100.00;61273.97;5126934;28;20027;-71
2024/03/31 09:03:49;;;;;;;10.07;7.30;;;;;;;-145.63;100.00;61273.97;5122820;28;20032;-73
2024/03/31 09:06:15;;;;;;;15.07;7.90;;;;;;;-145.63;100.00;61273.97;5120197;28;20032;-74
2024/03/31 09:08:41;;;;;;;13.82;7.85;;;;;;;-145.63;100.00;61273.97;5128886;28;20150;-70
2024/03/31 09:11:07;;;;;;;11.38;7.47;;;;;;;-145.63;100.00;61273.97;5129839;28;20031;-71
2024/03/31 09:13:35;;;;;;;11.57;7.65;;;;;;;-145.63;100.00;61273.97;5118773;28;20035;-75
2024/03/31 09:16:02;;;;;;;9.85;7.68;;;;;;;-145.63;100.00;61273.97;5125797;28;20027;-72
2024/03/31 09:18:28;;;;;;;15.00;7.50;;;;;;;-145.63;100.00;61273.97;5126537;28;20062;-71
2024/03/31 09:20:54;;;;;;;13.93;7.40;;;;;;;-145.63;100.00;61273.97;5131044;28;20433;-73
2024/03/31 09:23:20;;;;;;;9.50;6.13;;;;;;;-145.63;100.00;61273.97;5102992;28;20069;-71
2024/03/31 09:25:46;;;;;;;10.82;5.75;;;;;;;-145.63;100.00;61273.97;5113651;27;20484;-71
2024/03/31 09:28:13;;;;;;;10.07;5.53;;;;;;;-145.63;100.00;61273.97;5115337;28;20081;-72
2024/03/31 09:30:39;;;;;;;7.75;5.57;;;;;;;-145.63;100.00;61273.97;5114489;27;20078;-72
2024/03/31 09:33:06;;;;;;;13.02;6.32;;;;;;;-145.63;100.00;61273.97;5114847;27;20077;-75
2024/03/31 09:35:32;;;;;;;8.40;6.03;;;;;;;-145.63;100.00;61273.97;5124975;27;20043;-76
2024/03/31 09:37:58;;;;;;;10.57;6.40;;;;;;;-145.63;100.00;61273.97;5096397;28;20034;-70
2024/03/31 09:40:26;;;;;;;8.63;5.43;;;;;;;-145.63;100.00;61273.97;5115806;27;20353;-69
2024/03/31 09:42:52;;;;;;;10.82;5.65;;;;;;;-145.63;100.00;61273.97;5115736;27;20035;-70
2024/03/31 09:45:18;;;;;;;10.35;5.68;;;;;;;-145.63;100.00;61273.97;5115262;28;20038;-69
2024/03/31 09:47:51;;;;;;;8.40;6.25;;;;;;;-145.63;100.00;61273.97;5122153;27;20613;-70
2024/03/31 09:50:22;;;;;;;9.82;5.65;;;;;;;-145.63;100.00;61273.97;5127901;27;20035;-70
2024/03/31 09:52:55;;;;;;;10.40;5.63;;;;;;;-145.63;100.00;61273.97;5120489;27;20027;-70
2024/03/31 09:55:24;;;;;;;12.45;5.78;;;;;;;-145.63;100.00;61273.97;5132989;27;20039;-70
2024/03/31 09:57:56;;;;;;;10.18;5.68;;;;;;;-145.63;100.00;61273.97;5124122;27;20092;-71
2024/03/31 10:00:22;;;;;;;;;;;;;;;-145.63;100.00;61273.97;5133292;27;20031;-71
2024/03/31 10:03:08;;;;;;;9.50;4.85;;;;;;;-145.63;100.00;61273.97;5122169;27;19926;-72
2024/03/31 10:05:37;;;;;;;14.52;9.13;;;;;;;-145.63;100.00;61273.97;5128057;27;20051;-70
2024/03/31 10:08:05;;;;;;;7.50;4.53;;;;;;;-145.63;100.00;61273.97;5120457;27;20027;-69
2024/03/31 10:10:32;;;;;;;7.43;4.03;;;;;;;-145.63;100.00;61273.97;5131640;27;20427;-70
2024/03/31 10:12:59;;;;;;;9.93;4.28;;;;;;;-145.63;100.00;61273.97;5123936;27;20039;-69
2024/03/31 10:15:27;;;;;;;11.52;4.30;;;;;;;-145.63;100.00;61273.97;5132813;27;20052;-70
2024/03/31 10:17:56;;;;;;;35.65;18.50;;;;;;;-145.63;100.00;61273.97;5127010;27;20023;-70
2024/03/31 10:20:23;;;;;;;9.63;5.35;;;;;;;-145.63;100.00;61273.97;5123761;27;20053;-69
2024/03/31 10:22:50;;;;;;;10.93;5.20;;;;;;;-145.63;100.00;61273.97;5131073;27;20023;-68
2024/03/31 10:25:16;;;;;;;11.30;5.07;;;;;;;-145.63;100.00;61273.97;5105560;27;20481;-69
2024/03/31 10:27:43;;;;;;;6.65;4.03;;;;;;;-145.63;100.00;61273.97;5102069;27;20063;-68
2024/03/31 10:30:10;;;;;;;5.25;3.63;;;;;;;-145.63;100.00;61273.97;5116851;27;20035;-71
2024/03/31 10:32:36;;;;;;;28.38;17.67;;;;;;;-145.63;100.00;61273.97;5121594;27;20063;-69
2024/03/31 10:35:03;;;;;;;10.93;5.70;;;;;;;-145.63;100.00;61273.97;5121244;27;20088;-70
2024/03/31 10:37:31;;;;;;;6.03;3.83;;;;;;;-145.63;100.00;61273.97;5115560;27;20061;-74
2024/03/31 10:39:58;;;;;;;7.15;3.60;;;;;;;-145.63;100.00;61273.97;5133270;27;20105;-72
2024/03/31 10:42:25;;;;;;;8.95;4.15;;;;;;;-145.63;100.00;61273.97;5128726;27;20047;-73
2024/03/31 10:44:53;;;;;;;6.47;4.20;;;;;;;-145.63;100.00;61273.97;5129694;27;20029;-73
2024/03/31 10:47:20;;;;;;;7.60;3.80;;;;;;;-145.63;100.00;61273.97;5125056;27;20038;-72
2024/03/31 10:49:46;;;;;;;8.80;4.13;;;;;;;-145.63;100.00;61273.97;5124308;27;20038;-70
2024/03/31 10:52:19;;;;;;;15.00;5.18;;;;;;;-145.63;100.00;61273.97;5114677;27;20028;-74
2024/03/31 10:54:45;;;;;;;6.03;4.30;;;;;;;-145.63;100.00;61273.97;5131286;27;20031;-69
2024/03/31 10:57:12;;;;;;;5.85;3.42;;;;;;;-145.63;100.00;61273.97;5132363;27;20442;-74
2024/03/31 10:59:40;;;;;;;10.48;4.32;;;;;;;-145.63;100.00;61273.97;5129429;27;20031;-75
2024/03/31 11:02:18;;;;;;;10.50;4.07;;;;;;;-145.63;100.00;61273.97;5123503;27;20067;-72